Aaron Joseph — WCV9877 — position and weather

sailwx.info

Track history (hours):
 
Tides and Currents Weather Stations Pressure Air Temp Water Temp Dewpoint Dewpoint Depression Visibility Wind Speed Wind Dir Waves Ship Positions

Aaron Joseph

Owner: AARON JOSEPH INC, GOLDEN MEADOW, LA. More information available from US FCC via Universal Licensing System and Coast Guard Vessel Documentation Center.

Last reported at 2016-Jun-26 03:20 UTC. Time now 2016-Jun-30 23:12 UTC.
Position N 29°45' W 090°01'.

; draft 2.5 m.

Type: Tug. MMSI: 367028680.

Date/timePositionNaut miles runAvg speedWind from/ knotsBaromVisibWave heightAir tempDewpointWater temp
2016-Jun-26 03:20N 29°45' W 090°01'6 7.6
2016-Jun-26 02:33N 29°51' W 089°59'5 4.6
2016-Jun-26 01:23N 29°55' W 089°55'3 3.1
2016-Jun-26 00:28N 29°55' W 089°58'1 0.7
2016-Jun-25 23:33N 29°54' W 089°59'1 0.9
2016-Jun-25 22:33N 29°54' W 089°60'5 5.5
2016-Jun-25 21:33N 29°50' W 090°04'5 4.4
2016-Jun-25 20:28N 29°46' W 090°07'24 4.8
2016-Jun-25 15:33N 29°34' W 090°30'5 4.7
2016-Jun-25 14:33N 29°35' W 090°35'5 4.8
2016-Jun-25 13:33N 29°36' W 090°41'3 2.6
2016-Jun-25 12:33N 29°35' W 090°43'4 3.7
2016-Jun-25 11:34N 29°32' W 090°46'6 5.7
2016-Jun-25 10:33N 29°32' W 090°53'5 5.5
2016-Jun-25 09:33N 29°35' W 090°58'3 0.4
2016-Jun-25 00:20N 29°33' W 090°55'6 7.5
2016-Jun-24 23:33N 29°32' W 090°48'6 6.1
2016-Jun-24 22:33N 29°36' W 090°43'2 1.5
2016-Jun-24 21:15N 29°36' W 090°40'0 0.0
2016-Jun-24 20:33N 29°36' W 090°40'0 0.0
2016-Jun-24 19:27N 29°36' W 090°40'0 0.0
2016-Jun-24 18:33N 29°36' W 090°40'0 0.0
2016-Jun-24 17:27N 29°36' W 090°40'0 0.0
2016-Jun-24 16:33N 29°36' W 090°40'0 0.0
2016-Jun-24 15:27N 29°36' W 090°40'0 0.0
2016-Jun-24 14:21N 29°36' W 090°40'0 0.0
2016-Jun-24 13:33N 29°36' W 090°40'0 0.0
2016-Jun-24 12:33N 29°36' W 090°40'0 0.0
2016-Jun-24 11:27N 29°36' W 090°40'0 0.0
2016-Jun-24 10:24N 29°36' W 090°40'0 0.0
2016-Jun-24 09:33N 29°36' W 090°40'0 0.0
2016-Jun-24 08:27N 29°36' W 090°40'0 0.0
2016-Jun-24 07:33N 29°36' W 090°40'0 0.0
2016-Jun-24 04:33N 29°36' W 090°40'0 0.0
2016-Jun-24 03:33N 29°36' W 090°40'0 0.0
2016-Jun-24 02:21N 29°36' W 090°40'0 0.0
2016-Jun-24 01:33N 29°36' W 090°40'0 0.0
2016-Jun-24 00:33N 29°36' W 090°40'0 0.0
2016-Jun-23 23:21N 29°36' W 090°40'0 0.0
2016-Jun-23 22:33N 29°36' W 090°40'0 0.0
2016-Jun-23 21:33N 29°36' W 090°40'0 0.0
2016-Jun-23 20:21N 29°36' W 090°40'0 0.0
2016-Jun-23 19:33N 29°36' W 090°40'0 0.0
2016-Jun-23 18:33N 29°36' W 090°40'0 0.0
2016-Jun-23 17:33N 29°36' W 090°40'0 0.0
2016-Jun-23 16:33N 29°36' W 090°40'0 0.0
2016-Jun-23 15:33N 29°36' W 090°40'0 0.0
2016-Jun-23 14:33N 29°36' W 090°40'0 0.0
2016-Jun-23 13:21N 29°36' W 090°40'0 0.0
2016-Jun-23 12:33N 29°36' W 090°40'0 0.0
2016-Jun-23 11:27N 29°36' W 090°40'0 0.0
2016-Jun-23 10:33N 29°36' W 090°40'0 0.0
2016-Jun-23 09:09N 29°36' W 090°40'0 0.0
2016-Jun-23 08:33N 29°36' W 090°40'0 0.0
2016-Jun-23 07:30N 29°36' W 090°40'0 0.0
2016-Jun-23 05:30N 29°36' W 090°40'0 0.0
2016-Jun-23 04:30N 29°36' W 090°40'0 0.0
2016-Jun-23 03:30N 29°36' W 090°40'0 0.0
2016-Jun-23 02:30N 29°36' W 090°40'0 0.0
2016-Jun-23 01:24N 29°36' W 090°40'0 0.0
2016-Jun-23 00:33N 29°36' W 090°40'0 0.0
2016-Jun-22 23:30N 29°36' W 090°40'0 0.0
2016-Jun-22 22:24N 29°36' W 090°40'0 0.0
2016-Jun-22 21:30N 29°36' W 090°40'0 0.0
2016-Jun-22 20:34N 29°36' W 090°40'0 0.0
2016-Jun-22 19:10N 29°36' W 090°40'2 3.4
2016-Jun-22 18:34N 29°35' W 090°38'2 2.0
2016-Jun-22 17:33N 29°35' W 090°36'0 0.0
2016-Jun-22 16:32N 29°35' W 090°36'0 0.0
2016-Jun-22 15:32N 29°35' W 090°36'0 0.2
2016-Jun-22 14:31N 29°35' W 090°36'0 0.2
2016-Jun-22 13:29N 29°35' W 090°36'0 0.0
2016-Jun-22 12:29N 29°35' W 090°36'0 0.0
2016-Jun-22 11:23N 29°35' W 090°36'0 0.0
2016-Jun-22 10:23N 29°35' W 090°36'0 0.0
2016-Jun-22 09:29N 29°35' W 090°36'0 0.0
2016-Jun-22 08:29N 29°35' W 090°36'0 0.0
2016-Jun-22 07:29N 29°35' W 090°36'0 0.0
2016-Jun-22 06:29N 29°35' W 090°36'0 0.0
2016-Jun-22 05:29N 29°35' W 090°36'0 0.0
2016-Jun-22 04:29N 29°35' W 090°36'0 0.0
2016-Jun-22 03:29N 29°35' W 090°36'0 0.0
2016-Jun-22 02:29N 29°35' W 090°36'0 0.0
2016-Jun-22 01:29N 29°35' W 090°36'0 0.0
2016-Jun-22 00:29N 29°35' W 090°36'0 0.0
2016-Jun-21 23:29N 29°35' W 090°36'0 0.0
2016-Jun-21 22:29N 29°35' W 090°36'0 0.0
2016-Jun-21 21:29N 29°35' W 090°36'0 0.0
2016-Jun-21 20:29N 29°35' W 090°36'0 0.0
2016-Jun-21 19:29N 29°35' W 090°36'4 4.8
2016-Jun-21 18:34N 29°34' W 090°31'30 4.8
2016-Jun-21 12:17N 29°50' W 090°02'  
Track history (hours):
 
Tides and Currents Weather Stations Pressure Air Temp Water Temp Dewpoint Dewpoint Depression Visibility Wind Speed Wind Dir Waves Ship Positions

Aaron Joseph

Owner: AARON JOSEPH INC, GOLDEN MEADOW, LA. More information available from US FCC via Universal Licensing System and Coast Guard Vessel Documentation Center.

Last reported at 2016-Jun-26 03:20 UTC. Time now 2016-Jun-30 23:12 UTC.
Position N 29°45' W 090°01'.

; draft 2.5 m.

Type: Tug. MMSI: 367028680.

Date/timePositionNaut miles runAvg speedWind from/ knotsBaromVisibWave heightAir tempDewpointWater temp
2016-Jun-26 03:20N 29°45' W 090°01'6 7.6
2016-Jun-26 02:33N 29°51' W 089°59'5 4.6
2016-Jun-26 01:23N 29°55' W 089°55'3 3.1
2016-Jun-26 00:28N 29°55' W 089°58'1 0.7
2016-Jun-25 23:33N 29°54' W 089°59'1 0.9
2016-Jun-25 22:33N 29°54' W 089°60'5 5.5
2016-Jun-25 21:33N 29°50' W 090°04'5 4.4
2016-Jun-25 20:28N 29°46' W 090°07'24 4.8
2016-Jun-25 15:33N 29°34' W 090°30'5 4.7
2016-Jun-25 14:33N 29°35' W 090°35'5 4.8
2016-Jun-25 13:33N 29°36' W 090°41'3 2.6
2016-Jun-25 12:33N 29°35' W 090°43'4 3.7
2016-Jun-25 11:34N 29°32' W 090°46'6 5.7
2016-Jun-25 10:33N 29°32' W 090°53'5 5.5
2016-Jun-25 09:33N 29°35' W 090°58'3 0.4
2016-Jun-25 00:20N 29°33' W 090°55'6 7.5
2016-Jun-24 23:33N 29°32' W 090°48'6 6.1
2016-Jun-24 22:33N 29°36' W 090°43'2 1.5
2016-Jun-24 21:15N 29°36' W 090°40'0 0.0
2016-Jun-24 20:33N 29°36' W 090°40'0 0.0
2016-Jun-24 19:27N 29°36' W 090°40'0 0.0
2016-Jun-24 18:33N 29°36' W 090°40'0 0.0
2016-Jun-24 17:27N 29°36' W 090°40'0 0.0
2016-Jun-24 16:33N 29°36' W 090°40'0 0.0
2016-Jun-24 15:27N 29°36' W 090°40'0 0.0
2016-Jun-24 14:21N 29°36' W 090°40'0 0.0
2016-Jun-24 13:33N 29°36' W 090°40'0 0.0
2016-Jun-24 12:33N 29°36' W 090°40'0 0.0
2016-Jun-24 11:27N 29°36' W 090°40'0 0.0
2016-Jun-24 10:24N 29°36' W 090°40'0 0.0
2016-Jun-24 09:33N 29°36' W 090°40'0 0.0
2016-Jun-24 08:27N 29°36' W 090°40'0 0.0
2016-Jun-24 07:33N 29°36' W 090°40'0 0.0
2016-Jun-24 04:33N 29°36' W 090°40'0 0.0
2016-Jun-24 03:33N 29°36' W 090°40'0 0.0
2016-Jun-24 02:21N 29°36' W 090°40'0 0.0
2016-Jun-24 01:33N 29°36' W 090°40'0 0.0
2016-Jun-24 00:33N 29°36' W 090°40'0 0.0
2016-Jun-23 23:21N 29°36' W 090°40'0 0.0
2016-Jun-23 22:33N 29°36' W 090°40'0 0.0
2016-Jun-23 21:33N 29°36' W 090°40'0 0.0
2016-Jun-23 20:21N 29°36' W 090°40'0 0.0
2016-Jun-23 19:33N 29°36' W 090°40'0 0.0
2016-Jun-23 18:33N 29°36' W 090°40'0 0.0
2016-Jun-23 17:33N 29°36' W 090°40'0 0.0
2016-Jun-23 16:33N 29°36' W 090°40'0 0.0
2016-Jun-23 15:33N 29°36' W 090°40'0 0.0
2016-Jun-23 14:33N 29°36' W 090°40'0 0.0
2016-Jun-23 13:21N 29°36' W 090°40'0 0.0
2016-Jun-23 12:33N 29°36' W 090°40'0 0.0
2016-Jun-23 11:27N 29°36' W 090°40'0 0.0
2016-Jun-23 10:33N 29°36' W 090°40'0 0.0
2016-Jun-23 09:09N 29°36' W 090°40'0 0.0
2016-Jun-23 08:33N 29°36' W 090°40'0 0.0
2016-Jun-23 07:30N 29°36' W 090°40'0 0.0
2016-Jun-23 05:30N 29°36' W 090°40'0 0.0
2016-Jun-23 04:30N 29°36' W 090°40'0 0.0
2016-Jun-23 03:30N 29°36' W 090°40'0 0.0
2016-Jun-23 02:30N 29°36' W 090°40'0 0.0
2016-Jun-23 01:24N 29°36' W 090°40'0 0.0
2016-Jun-23 00:33N 29°36' W 090°40'0 0.0
2016-Jun-22 23:30N 29°36' W 090°40'0 0.0
2016-Jun-22 22:24N 29°36' W 090°40'0 0.0
2016-Jun-22 21:30N 29°36' W 090°40'0 0.0
2016-Jun-22 20:34N 29°36' W 090°40'0 0.0
2016-Jun-22 19:10N 29°36' W 090°40'2 3.4
2016-Jun-22 18:34N 29°35' W 090°38'2 2.0
2016-Jun-22 17:33N 29°35' W 090°36'0 0.0
2016-Jun-22 16:32N 29°35' W 090°36'0 0.0
2016-Jun-22 15:32N 29°35' W 090°36'0 0.2
2016-Jun-22 14:31N 29°35' W 090°36'0 0.2
2016-Jun-22 13:29N 29°35' W 090°36'0 0.0
2016-Jun-22 12:29N 29°35' W 090°36'0 0.0
2016-Jun-22 11:23N 29°35' W 090°36'0 0.0
2016-Jun-22 10:23N 29°35' W 090°36'0 0.0
2016-Jun-22 09:29N 29°35' W 090°36'0 0.0
2016-Jun-22 08:29N 29°35' W 090°36'0 0.0
2016-Jun-22 07:29N 29°35' W 090°36'0 0.0
2016-Jun-22 06:29N 29°35' W 090°36'0 0.0
2016-Jun-22 05:29N 29°35' W 090°36'0 0.0
2016-Jun-22 04:29N 29°35' W 090°36'0 0.0
2016-Jun-22 03:29N 29°35' W 090°36'0 0.0
2016-Jun-22 02:29N 29°35' W 090°36'0 0.0
2016-Jun-22 01:29N 29°35' W 090°36'0 0.0
2016-Jun-22 00:29N 29°35' W 090°36'0 0.0
2016-Jun-21 23:29N 29°35' W 090°36'0 0.0
2016-Jun-21 22:29N 29°35' W 090°36'0 0.0
2016-Jun-21 21:29N 29°35' W 090°36'0 0.0
2016-Jun-21 20:29N 29°35' W 090°36'0 0.0
2016-Jun-21 19:29N 29°35' W 090°36'4 4.8
2016-Jun-21 18:34N 29°34' W 090°31'30 4.8
2016-Jun-21 12:17N 29°50' W 090°02'  

Dump ship's entire track history